Time;durP1;ratioP1;P1;durP2;ratioP2;P2;SDS_P1;SDS_P2;PMS_P1;PMS_P2;Temp;Humidity;BMP_temperature;BMP_pressure;BME280_temperature;BME280_humidity;BME280_pressure;Samples;Min_cycle;Max_cycle;Signal;HPM_P1;HPM_P2
2023/08/30 00:03:37;;;;;;;5.07;3.40;;;;;;;15.19;100.00;99121.50;12216235;19;20011;-83
2023/08/30 00:07:39;;;;;;;7.20;3.90;;;;;;;15.20;100.00;99121.22;12206509;19;21003;-84
2023/08/30 00:11:41;;;;;;;7.60;3.08;;;;;;;15.25;100.00;99118.38;12200767;19;20039;-84
2023/08/30 00:15:43;;;;;;;5.38;3.42;;;;;;;15.27;100.00;99118.91;12176499;19;20007;-84
2023/08/30 00:19:45;;;;;;;8.30;3.13;;;;;;;15.33;100.00;99121.63;12204575;19;20924;-84
2023/08/30 00:23:47;;;;;;;7.30;3.67;;;;;;;15.40;100.00;99124.84;12186550;19;20078;-85
2023/08/30 00:27:48;;;;;;;7.03;3.38;;;;;;;15.43;100.00;99113.97;12169476;19;20011;-85
2023/08/30 00:31:55;;;;;;;8.23;3.95;;;;;;;15.50;100.00;99113.59;12190744;19;20027;-84
2023/08/30 00:40:47;;;;;;;7.00;3.88;;;;;;;15.61;100.00;99117.03;12202271;19;20074;-85
2023/08/30 00:44:54;;;;;;;5.95;3.25;;;;;;;15.65;100.00;99115.34;12200573;19;20011;-85
2023/08/30 00:48:57;;;;;;;7.00;3.97;;;;;;;15.72;100.00;99111.06;12176977;19;20007;-84
2023/08/30 00:53:05;;;;;;;10.13;4.25;;;;;;;15.75;100.00;99104.09;12198609;19;20513;-84
2023/08/30 00:57:13;;;;;;;8.57;4.10;;;;;;;15.72;100.00;99105.53;12177480;19;20011;-84
2023/08/30 01:01:21;;;;;;;9.02;3.92;;;;;;;15.77;100.00;99107.41;12200608;19;20015;-84
2023/08/30 01:05:24;;;;;;;8.75;4.28;;;;;;;15.75;100.00;99106.88;12195251;19;20018;-84
2023/08/30 01:09:26;;;;;;;8.35;4.43;;;;;;;15.76;100.00;99100.19;12174446;19;20380;-84
2023/08/30 01:13:43;;;;;;;5.97;4.15;;;;;;;15.80;100.00;99100.44;12200001;19;20086;-85
2023/08/30 01:17:48;;;;;;;8.20;4.22;;;;;;;15.78;100.00;99092.38;12195496;19;20473;-85
2023/08/30 01:22:08;;;;;;;6.20;3.78;;;;;;;15.80;100.00;99094.88;12176154;19;20478;-85
2023/08/30 01:26:29;;;;;;;5.72;4.03;;;;;;;15.81;100.00;99089.00;12195537;19;20470;-84
2023/08/30 01:30:33;;;;;;;5.03;3.70;;;;;;;15.85;100.00;99086.44;12176500;19;20018;-86
2023/08/30 01:34:38;;;;;;;6.10;3.88;;;;;;;15.88;100.00;99077.50;12196211;19;21221;-85
2023/08/30 01:38:41;;;;;;;5.60;3.55;;;;;;;15.89;100.00;99079.97;12194501;19;20003;-85
2023/08/30 01:42:46;;;;;;;6.35;4.03;;;;;;;15.87;100.00;99079.44;12162204;19;20022;-86
2023/08/30 01:46:48;;;;;;;5.65;3.83;;;;;;;15.86;100.00;99077.81;12183600;19;20013;-85
2023/08/30 01:50:50;;;;;;;4.82;3.58;;;;;;;15.88;100.00;99069.16;12205014;19;20366;-85
2023/08/30 01:54:53;;;;;;;6.22;3.70;;;;;;;15.88;100.00;99070.00;12179291;19;20006;-85
2023/08/30 01:58:55;;;;;;;7.82;4.35;;;;;;;15.90;100.00;99067.72;12198191;19;20078;-85
2023/08/30 02:02:57;;;;;;;6.40;3.83;;;;;;;15.91;100.00;99066.63;12190551;19;20003;-84
2023/08/30 02:07:05;;;;;;;7.13;3.93;;;;;;;15.91;100.00;99061.06;12200606;19;20010;-85
2023/08/30 02:11:14;;;;;;;6.50;3.80;;;;;;;15.92;100.00;99064.66;12197997;19;20086;-84
2023/08/30 02:15:18;;;;;;;6.93;4.30;;;;;;;15.92;100.00;99056.34;12173723;19;20376;-85
2023/08/30 02:19:21;;;;;;;7.80;4.13;;;;;;;15.91;100.00;99069.41;12195097;19;20006;-85
2023/08/30 02:23:26;;;;;;;9.18;3.67;;;;;;;15.92;100.00;99059.94;12174521;19;20010;-85
2023/08/30 02:27:28;;;;;;;6.32;4.50;;;;;;;15.93;100.00;99056.00;12179644;19;20442;-85
2023/08/30 02:31:30;;;;;;;6.63;3.92;;;;;;;15.94;100.00;99065.16;12201275;19;21640;-84
2023/08/30 02:35:32;;;;;;;7.00;3.92;;;;;;;15.92;100.00;99050.78;12194278;19;20034;-84
2023/08/30 02:39:33;;;;;;;8.02;3.97;;;;;;;15.87;100.00;99057.22;12176637;19;20002;-85
2023/08/30 02:43:35;;;;;;;5.55;3.72;;;;;;;15.85;100.00;99053.91;12191160;19;20023;-85
2023/08/30 02:47:37;;;;;;;5.50;3.80;;;;;;;15.84;100.00;99052.28;12191107;19;20274;-85
2023/08/30 02:51:39;;;;;;;6.10;3.75;;;;;;;15.84;100.00;99054.25;12169103;19;20080;-84
2023/08/30 02:55:41;;;;;;;7.40;3.58;;;;;;;15.80;100.00;99051.25;12189104;19;20011;-85
2023/08/30 02:59:42;;;;;;;4.85;3.20;;;;;;;15.80;100.00;99053.22;12190257;19;20003;-85
2023/08/30 03:03:46;;;;;;;5.05;3.47;;;;;;;15.80;100.00;99048.47;12165655;19;20014;-84
2023/08/30 03:07:48;;;;;;;7.20;3.67;;;;;;;15.81;100.00;99058.44;12186950;19;20035;-84
2023/08/30 03:11:50;;;;;;;5.72;3.75;;;;;;;15.83;100.00;99058.97;12191246;19;20010;-85
2023/08/30 03:15:52;;;;;;;7.00;3.78;;;;;;;15.83;100.00;99056.19;12167404;19;20014;-85
2023/08/30 03:19:54;;;;;;;7.65;4.28;;;;;;;15.83;100.00;99053.41;12190503;19;20009;-84
2023/08/30 03:23:56;;;;;;;12.02;4.90;;;;;;;15.82;100.00;99057.31;12189971;19;21413;-84
2023/08/30 03:28:00;;;;;;;5.35;3.80;;;;;;;15.78;100.00;99058.22;12163498;19;20017;-84
2023/08/30 03:32:02;;;;;;;6.65;3.78;;;;;;;15.76;100.00;99066.84;12190478;19;20032;-84
2023/08/30 03:36:04;;;;;;;5.47;4.10;;;;;;;15.75;100.00;99065.22;12169645;19;20389;-84
2023/08/30 03:40:07;;;;;;;6.57;4.63;;;;;;;15.75;100.00;99065.22;12190747;19;20785;-83
2023/08/30 03:44:08;;;;;;;7.27;4.20;;;;;;;15.71;100.00;99062.22;12185588;19;20019;-84
2023/08/30 03:48:10;;;;;;;6.38;4.35;;;;;;;15.70;100.00;99074.47;12163171;19;20263;-84
2023/08/30 03:52:12;;;;;;;7.13;4.68;;;;;;;15.67;100.00;99068.63;12189050;19;20018;-84
2023/08/30 03:56:14;;;;;;;8.30;4.97;;;;;;;15.65;100.00;99060.63;12183464;19;20010;-84
2023/08/30 04:00:16;;;;;;;6.97;4.40;;;;;;;15.68;100.00;99059.22;12165676;19;20023;-84
2023/08/30 04:04:18;;;;;;;7.88;4.97;;;;;;;15.61;100.00;99064.28;12187063;19;20481;-83
2023/08/30 04:08:23;;;;;;;9.35;5.90;;;;;;;15.59;100.00;99063.78;12185997;19;20494;-83
2023/08/30 04:12:24;;;;;;;8.90;6.05;;;;;;;15.55;100.00;99066.31;12175386;19;20018;-84
2023/08/30 04:16:26;;;;;;;8.70;6.32;;;;;;;15.55;100.00;99071.88;12200425;19;20007;-84
2023/08/30 04:20:28;;;;;;;9.40;7.40;;;;;;;15.56;100.00;99067.97;12199346;19;20034;-84
2023/08/30 04:24:31;;;;;;;10.95;6.25;;;;;;;15.56;100.00;99061.59;12172993;19;20003;-84
2023/08/30 04:28:33;;;;;;;;;;;;;;;15.53;100.00;99062.19;12195521;19;20045;-84
2023/08/30 04:32:35;;;;;;;11.35;7.28;;;;;;;15.57;100.00;99057.69;12198063;19;20068;-84
2023/08/30 04:36:37;;;;;;;10.30;6.88;;;;;;;15.56;100.00;99053.28;12173919;19;20011;-85
2023/08/30 04:40:39;;;;;;;10.40;6.72;;;;;;;15.56;100.00;99050.50;12201453;19;20017;-85
2023/08/30 04:44:41;;;;;;;9.13;6.40;;;;;;;15.56;100.00;99053.28;12193396;19;20014;-85
2023/08/30 04:48:44;;;;;;;10.95;7.47;;;;;;;15.58;100.00;99048.22;12169897;19;20010;-85
2023/08/30 04:59:39;;;;;;;;;;;;;;;;;;;;;
2023/08/30 05:04:05;;;;;;;12.02;6.63;;;;;;;15.63;100.00;99037.03;12169702;19;20039;-85
2023/08/30 05:23:29;;;;;;;11.75;7.80;;;;;;;15.94;100.00;99035.44;12192229;19;20007;-84
2023/08/30 05:27:31;;;;;;;12.15;8.23;;;;;;;15.97;100.00;99033.19;12193110;19;20011;-85
2023/08/30 05:31:33;;;;;;;11.63;8.18;;;;;;;16.02;100.00;99042.25;12195347;19;20620;-84
2023/08/30 05:35:42;;;;;;;12.13;7.50;;;;;;;16.10;100.00;99043.53;12201850;19;20475;-84
2023/08/30 05:40:00;;;;;;;12.70;7.82;;;;;;;16.20;100.00;99043.31;12180198;19;20018;-84
2023/08/30 05:44:04;;;;;;;15.95;8.85;;;;;;;16.30;100.00;99050.63;12202063;19;20078;-83
2023/08/30 05:48:07;;;;;;;18.73;9.00;;;;;;;16.36;100.00;99046.66;12176756;19;20006;-83
2023/08/30 05:52:09;;;;;;;16.85;9.32;;;;;;;16.40;100.00;99051.28;12202126;19;20026;-83
2023/08/30 05:56:11;;;;;;;14.27;8.00;;;;;;;16.47;100.00;99047.28;12199028;19;20695;-84
2023/08/30 06:00:13;;;;;;;13.00;7.93;;;;;;;16.52;100.00;99045.22;12181886;19;20260;-84
2023/08/30 06:04:19;;;;;;;;;;;;;;;16.56;100.00;99043.47;12198815;19;20003;-85
2023/08/30 06:21:54;;;;;;;14.88;10.48;;;;;;;16.85;100.00;99056.28;12188368;19;20014;-85
2023/08/30 06:26:00;;;;;;;14.23;10.77;;;;;;;16.98;100.00;99057.41;12192970;19;20086;-85
2023/08/30 06:30:46;;;;;;;15.07;10.85;;;;;;;17.18;100.00;99051.41;12171711;19;20018;-85
2023/08/30 06:34:48;;;;;;;15.48;10.95;;;;;;;17.11;100.00;99051.00;12195503;19;20016;-83
2023/08/30 06:38:52;;;;;;;16.20;10.27;;;;;;;17.01;100.00;99048.44;12191876;19;20743;-83
2023/08/30 06:42:54;;;;;;;16.63;11.43;;;;;;;16.92;100.00;99053.09;12166620;19;20135;-83
2023/08/30 06:46:59;;;;;;;15.15;10.73;;;;;;;16.95;100.00;99058.84;12186098;19;20006;-84
2023/08/30 06:51:03;;;;;;;14.02;11.00;;;;;;;16.94;100.00;99053.59;12151721;19;19999;-84
2023/08/30 06:55:05;;;;;;;14.03;11.30;;;;;;;16.98;100.00;99047.09;12189648;19;20027;-84
2023/08/30 06:59:07;;;;;;;15.33;10.97;;;;;;;17.08;100.00;99040.50;12199081;19;20010;-84
2023/08/30 07:03:09;;;;;;;12.32;10.60;;;;;;;17.21;100.00;99031.28;12170418;19;20020;-84
2023/08/30 07:07:12;;;;;;;15.20;10.43;;;;;;;17.27;100.00;99032.81;12196669;19;20014;-85
2023/08/30 07:11:14;;;;;;;15.65;10.50;;;;;;;17.41;100.00;99031.97;12197509;19;20010;-83
2023/08/30 07:15:34;;;;;;;15.82;10.10;;;;;;;17.50;100.00;99036.47;12175702;19;20588;-84
2023/08/30 07:19:35;;;;;;;14.02;9.40;;;;;;;17.63;100.00;99034.78;12203512;19;20007;-84
2023/08/30 07:23:37;;;;;;;15.23;10.55;;;;;;;17.75;100.00;99031.41;12193599;19;20017;-85
2023/08/30 07:27:39;;;;;;;12.33;9.90;;;;;;;17.87;100.00;99033.66;12171474;19;20529;-84
2023/08/30 07:31:41;;;;;;;14.55;10.85;;;;;;;18.02;100.00;99029.66;12194770;19;20072;-83
2023/08/30 07:35:43;;;;;;;18.13;11.25;;;;;;;18.25;100.00;99028.50;12195051;19;20136;-84
2023/08/30 07:39:45;;;;;;;15.63;11.30;;;;;;;18.39;100.00;99036.78;12171543;19;20643;-84
2023/08/30 07:43:46;;;;;;;17.13;11.17;;;;;;;18.45;100.00;99022.38;12192956;19;20093;-83
2023/08/30 07:47:48;;;;;;;15.68;10.25;;;;;;;18.62;100.00;99021.63;12201058;19;20095;-83
2023/08/30 07:51:50;;;;;;;13.55;11.38;;;;;;;18.74;100.00;99021.03;12182275;19;20548;-83
2023/08/30 07:55:52;;;;;;;23.27;11.20;;;;;;;18.98;100.00;99026.19;12202594;19;20031;-83
2023/08/30 07:59:54;;;;;;;15.55;11.23;;;;;;;19.10;100.00;99022.78;12204069;19;20357;-84
2023/08/30 08:03:55;;;;;;;13.53;9.80;;;;;;;19.37;100.00;99035.63;12180344;19;20028;-83
2023/08/30 08:08:08;;;;;;;12.97;9.20;;;;;;;19.63;100.00;99030.06;12206367;19;20011;-83
2023/08/30 08:12:10;;;;;;;11.47;9.37;;;;;;;19.84;100.00;99033.03;12188415;19;20013;-83
2023/08/30 08:16:11;;;;;;;12.57;8.50;;;;;;;20.08;100.00;99034.47;12209852;19;20363;-83
2023/08/30 08:20:13;;;;;;;16.20;9.90;;;;;;;20.19;100.00;99035.75;12204745;19;20010;-83
2023/08/30 08:24:15;;;;;;;14.75;11.30;;;;;;;20.18;100.00;99036.91;12186317;19;20010;-83
2023/08/30 08:28:18;;;;;;;13.95;10.27;;;;;;;20.11;100.00;99042.19;12206277;19;20010;-83
2023/08/30 08:32:20;;;;;;;13.75;10.25;;;;;;;20.03;100.00;99049.44;12213541;19;20002;-83
2023/08/30 08:36:22;;;;;;;12.53;9.03;;;;;;;20.18;100.00;99046.13;12193682;19;20014;-81
2023/08/30 08:40:24;;;;;;;15.70;10.27;;;;;;;20.28;100.00;99042.16;12252508;19;20035;-83
2023/08/30 08:44:45;;;;;;;13.95;9.18;;;;;;;20.60;100.00;99042.75;12230337;19;20081;-84
2023/08/30 08:48:49;;;;;;;12.90;9.30;;;;;;;20.93;99.47;99040.13;12195718;19;20019;-83
2023/08/30 08:52:52;;;;;;;12.15;9.25;;;;;;;21.08;96.37;99039.53;12207667;19;20014;-83
2023/08/30 08:57:02;;;;;;;13.80;10.13;;;;;;;21.13;93.96;99035.72;12178613;19;19999;-83
2023/08/30 09:01:05;;;;;;;11.65;8.77;;;;;;;21.15;95.16;99039.84;12205525;19;20003;-83
2023/08/30 09:05:10;;;;;;;11.13;8.68;;;;;;;21.30;93.29;99038.44;12198313;19;20026;-83
2023/08/30 09:09:12;;;;;;;12.07;9.80;;;;;;;21.21;91.78;99034.88;12179073;19;20014;-84
2023/08/30 09:13:14;;;;;;;11.85;8.70;;;;;;;21.48;91.12;99039.16;12201817;19;21421;-83
2023/08/30 09:26:54;;;;;;;12.55;9.55;;;;;;;21.82;87.42;99032.44;12203063;19;20742;-84
2023/08/30 09:30:58;;;;;;;11.15;8.77;;;;;;;21.88;88.56;99029.41;12176683;19;20016;-84
2023/08/30 09:35:14;;;;;;;11.18;8.57;;;;;;;21.66;89.09;99028.63;12199230;19;20006;-83
2023/08/30 09:39:16;;;;;;;12.70;9.50;;;;;;;21.47;89.87;99020.69;12175068;19;20038;-83
2023/08/30 09:43:21;;;;;;;12.13;7.93;;;;;;;21.68;89.44;99015.06;12198313;19;21497;-83
2023/08/30 09:47:27;;;;;;;8.82;7.90;;;;;;;21.72;89.79;99004.00;12194787;19;20010;-84
2023/08/30 09:51:30;;;;;;;14.80;7.97;;;;;;;22.06;88.54;99002.84;12174575;19;20020;-84
2023/08/30 09:55:33;;;;;;;12.63;8.55;;;;;;;22.37;82.19;98995.91;12196611;19;21406;-83
2023/08/30 09:59:35;;;;;;;9.95;7.38;;;;;;;22.59;83.23;98998.28;12194585;19;20006;-84
2023/08/30 10:03:37;;;;;;;11.50;7.50;;;;;;;22.84;81.18;98996.28;12172803;19;20006;-83
2023/08/30 10:07:41;;;;;;;9.45;7.20;;;;;;;23.09;77.14;98991.53;12192416;19;20615;-83
2023/08/30 10:11:44;;;;;;;;;;;;;;;23.23;75.10;98987.50;12195679;19;20021;-83
2023/08/30 10:15:49;;;;;;;11.93;7.57;;;;;;;23.38;74.43;98981.13;12172578;19;19911;-84
2023/08/30 10:19:53;;;;;;;8.15;6.63;;;;;;;23.53;72.01;98968.31;12196307;19;20021;-84
2023/08/30 10:23:56;;;;;;;11.57;6.63;;;;;;;23.70;70.56;98958.81;12193446;19;20844;-84
2023/08/30 10:27:59;;;;;;;5.53;4.55;;;;;;;23.79;68.87;98963.09;12171187;19;20663;-84
2023/08/30 10:32:06;;;;;;;8.18;4.85;;;;;;;23.96;66.29;98961.97;12196988;19;20020;-83
2023/08/30 10:36:08;;;;;;;7.50;5.93;;;;;;;23.99;64.42;98952.81;12205939;19;20011;-86
2023/08/30 10:40:11;;;;;;;13.53;5.00;;;;;;;23.85;66.28;98946.78;12170605;19;20006;-86
2023/08/30 10:44:14;;;;;;;;;;;;;;;23.97;63.98;98948.72;12193262;19;20542;-85
2023/08/30 10:48:21;;;;;;;4.68;3.33;;;;;;;24.08;61.94;98950.63;12190457;19;19919;-87
2023/08/30 10:57:30;;;;;;;9.23;4.65;;;;;;;23.62;60.41;98938.91;12175095;19;20023;-87
2023/08/30 11:01:42;;;;;;;7.47;3.60;;;;;;;23.40;63.74;98939.44;12209530;19;20026;-87
2023/08/30 11:05:49;;;;;;;10.95;5.20;;;;;;;24.02;62.97;98934.38;12203910;19;20596;-84
2023/08/30 11:09:54;;;;;;;5.30;3.63;;;;;;;24.31;59.09;98933.13;12175086;19;20010;-87
2023/08/30 11:14:12;;;;;;;6.20;3.63;;;;;;;24.31;57.89;98936.75;12194813;19;20013;-87
2023/08/30 11:18:19;;;;;;;6.32;3.20;;;;;;;24.54;59.17;98922.91;12168656;19;20009;-87
2023/08/30 11:22:21;;;;;;;4.20;2.88;;;;;;;24.62;57.59;98920.25;12195682;19;20014;-87
2023/08/30 11:26:23;;;;;;;5.45;3.47;;;;;;;24.78;52.48;98932.31;12195597;19;20018;-86
2023/08/30 11:30:30;;;;;;;5.47;3.40;;;;;;;24.77;52.55;98922.22;12172631;19;20014;-87
2023/08/30 11:35:01;;;;;;;6.20;3.30;;;;;;;24.15;57.08;98916.22;12201387;19;20260;-88
2023/08/30 11:39:14;;;;;;;10.65;3.72;;;;;;;24.71;55.87;98906.78;12171466;19;20027;-86
2023/08/30 11:43:16;;;;;;;4.45;2.97;;;;;;;25.11;53.88;98894.41;12195941;19;20007;-86
2023/08/30 11:47:20;;;;;;;3.85;2.25;;;;;;;25.54;48.75;98889.69;12201700;19;20010;-87
2023/08/30 11:51:22;;;;;;;3.42;2.13;;;;;;;26.30;46.95;98885.09;12176555;19;20016;-85
2023/08/30 11:55:26;;;;;;;4.07;1.90;;;;;;;27.02;44.48;98878.53;12201857;19;19998;-87
2023/08/30 11:59:39;;;;;;;6.80;2.65;;;;;;;27.95;42.85;98878.88;12201928;19;20484;-87
2023/08/30 12:03:50;;;;;;;2.80;2.15;;;;;;;28.52;41.70;98870.09;12174000;19;21181;-88
2023/08/30 12:07:52;;;;;;;4.22;2.58;;;;;;;29.08;39.52;98883.84;12189364;19;20495;-87
2023/08/30 12:12:09;;;;;;;5.78;2.70;;;;;;;29.30;38.00;98876.28;12195880;19;20002;-88
2023/08/30 12:16:17;;;;;;;3.25;2.03;;;;;;;29.61;37.34;98873.94;12178557;19;20009;-86
2023/08/30 12:20:23;;;;;;;6.18;2.92;;;;;;;29.88;36.96;98863.09;12193562;19;22112;-87
2023/08/30 12:24:25;;;;;;;4.18;2.08;;;;;;;30.81;36.93;98856.63;12174683;19;20078;-88
2023/08/30 12:28:29;;;;;;;5.13;2.45;;;;;;;30.61;36.42;98859.09;12197555;19;20073;-86
2023/08/30 12:32:31;;;;;;;3.92;2.80;;;;;;;29.31;37.53;98845.88;12208405;19;20005;-87
2023/08/30 12:36:32;;;;;;;4.60;2.20;;;;;;;28.52;36.23;98844.59;12185952;19;20007;-82
2023/08/30 12:40:35;;;;;;;3.50;2.28;;;;;;;28.44;38.21;98855.06;12205639;19;20006;-85
2023/08/30 12:44:38;;;;;;;4.43;2.67;;;;;;;28.71;37.21;98854.84;12206643;19;20338;-86
2023/08/30 12:48:41;;;;;;;4.05;2.83;;;;;;;27.25;37.56;98863.53;12177039;19;20073;-85
2023/08/30 12:52:46;;;;;;;5.18;2.72;;;;;;;26.33;39.58;98858.91;12199276;19;20469;-87
2023/08/30 12:56:50;;;;;;;4.38;2.25;;;;;;;27.39;37.73;98854.38;12195829;19;20034;-87
2023/08/30 13:00:52;;;;;;;;;;;;;;;28.21;35.46;98855.25;12178573;19;20015;-87
2023/08/30 13:04:54;;;;;;;7.07;2.27;;;;;;;28.77;34.93;98854.06;12196777;19;19911;-86
2023/08/30 13:08:57;;;;;;;3.92;2.88;;;;;;;28.93;35.81;98850.91;12194738;19;20346;-87
2023/08/30 13:12:58;;;;;;;4.60;2.92;;;;;;;29.29;34.97;98848.28;12178115;19;20016;-85
2023/08/30 13:17:00;;;;;;;4.85;2.80;;;;;;;29.21;33.90;98841.78;12197641;19;20015;-86
2023/08/30 13:21:04;;;;;;;4.60;2.83;;;;;;;29.68;34.33;98837.06;12199624;19;19999;-88
2023/08/30 13:25:08;;;;;;;5.30;2.83;;;;;;;29.91;32.68;98833.06;12173916;19;20078;-86
2023/08/30 13:29:10;;;;;;;4.53;3.20;;;;;;;30.16;33.19;98833.91;12194477;19;20003;-84
2023/08/30 13:33:12;;;;;;;4.40;2.85;;;;;;;30.66;32.06;98822.50;12173423;19;20007;-84
2023/08/30 13:37:15;;;;;;;6.22;2.90;;;;;;;31.00;32.13;98826.94;12198271;19;20465;-85
2023/08/30 13:41:16;;;;;;;;;;;;;;;30.75;30.81;98832.63;12197868;19;20443;-86
2023/08/30 13:45:18;;;;;;;5.00;3.50;;;;;;;31.30;31.39;98815.00;12175573;19;19918;-84
2023/08/30 13:49:20;;;;;;;5.75;3.65;;;;;;;31.54;31.19;98814.09;12194691;19;20014;-84
2023/08/30 13:53:24;;;;;;;6.20;3.35;;;;;;;31.97;30.41;98807.31;12196165;19;20014;-86
2023/08/30 13:57:26;;;;;;;4.80;3.00;;;;;;;31.38;30.07;98815.81;12177627;19;20120;-80
2023/08/30 14:01:29;;;;;;;4.40;3.30;;;;;;;29.90;31.55;98822.94;12200240;19;20023;-88
2023/08/30 14:05:31;;;;;;;4.45;3.30;;;;;;;29.13;33.09;98808.91;12198965;19;20007;-86
2023/08/30 14:09:33;;;;;;;5.78;3.25;;;;;;;28.39;33.90;98815.72;12173419;19;20672;-85
2023/08/30 14:13:35;;;;;;;4.00;3.08;;;;;;;27.49;35.09;98816.91;12196273;19;19999;-85
2023/08/30 14:17:36;;;;;;;5.50;3.00;;;;;;;27.12;36.00;98814.84;12202398;19;20465;-86
2023/08/30 14:21:38;;;;;;;4.30;2.70;;;;;;;27.41;35.25;98812.38;12180105;19;20509;-85
2023/08/30 14:25:40;;;;;;;5.63;2.85;;;;;;;27.36;35.81;98815.53;12197631;19;20608;-84
2023/08/30 14:29:42;;;;;;;4.53;2.88;;;;;;;27.25;35.71;98824.72;12196930;19;20022;-85
2023/08/30 14:33:47;;;;;;;7.75;2.97;;;;;;;27.21;36.11;98823.84;12181800;19;20018;-85
2023/08/30 14:37:49;;;;;;;6.10;3.47;;;;;;;27.00;37.05;98817.91;12196459;19;20017;-86
2023/08/30 14:41:50;;;;;;;5.82;2.97;;;;;;;26.84;37.20;98818.13;12195372;19;20348;-85
2023/08/30 14:46:02;;;;;;;5.95;3.35;;;;;;;26.61;37.53;98818.19;12173076;19;20033;-84
2023/08/30 14:50:12;;;;;;;5.72;3.47;;;;;;;26.29;37.81;98818.47;12202063;19;20022;-84
2023/08/30 14:54:14;;;;;;;6.15;3.22;;;;;;;25.72;38.13;98820.31;12179084;19;20018;-84
2023/08/30 14:58:15;;;;;;;4.72;3.17;;;;;;;25.60;39.42;98809.22;12192174;19;20002;-85
2023/08/30 15:02:17;;;;;;;5.50;3.77;;;;;;;25.95;39.35;98811.06;12195396;19;21295;-86
2023/08/30 15:06:19;;;;;;;5.00;2.60;;;;;;;25.53;39.64;98809.91;12175511;19;20287;-87
2023/08/30 15:10:22;;;;;;;5.55;2.80;;;;;;;25.13;40.25;98822.41;12192424;19;20019;-85
2023/08/30 15:14:24;;;;;;;;;;;;;;;24.92;41.13;98821.91;12202456;19;20038;-81
2023/08/30 15:18:25;;;;;;;5.90;2.80;;;;;;;24.55;42.38;98817.50;12170117;19;19915;-84
2023/08/30 15:22:27;;;;;;;4.63;2.27;;;;;;;24.71;41.64;98819.44;12197204;19;20010;-84
2023/08/30 15:26:29;;;;;;;4.17;2.30;;;;;;;24.45;42.34;98818.09;12197274;19;20267;-86
2023/08/30 15:30:31;;;;;;;4.53;2.83;;;;;;;24.09;43.19;98817.19;12176365;19;20532;-86
2023/08/30 15:34:33;;;;;;;6.93;2.40;;;;;;;24.00;43.80;98815.72;12193812;19;20010;-85
2023/08/30 15:38:36;;;;;;;6.38;2.97;;;;;;;23.94;44.24;98801.13;12195133;19;20045;-85
2023/08/30 15:42:38;;;;;;;7.90;2.60;;;;;;;23.91;44.49;98801.84;12176460;19;20007;-86
2023/08/30 15:46:40;;;;;;;4.38;2.20;;;;;;;23.76;44.78;98797.84;12194578;19;20059;-85
2023/08/30 15:50:42;;;;;;;5.40;2.60;;;;;;;23.70;44.67;98795.69;12187334;19;20211;-86
2023/08/30 15:54:44;;;;;;;4.10;2.55;;;;;;;23.53;45.78;98803.28;12173425;19;20014;-84
2023/08/30 15:58:47;;;;;;;3.75;2.22;;;;;;;23.29;46.39;98806.19;12193950;19;20031;-86
2023/08/30 16:02:52;;;;;;;6.65;2.35;;;;;;;23.19;46.47;98802.72;12196913;19;20015;-85
2023/08/30 16:06:55;;;;;;;4.32;3.03;;;;;;;23.08;47.18;98810.06;12179215;19;20011;-84
2023/08/30 16:11:07;;;;;;;4.88;2.28;;;;;;;22.96;48.38;98798.84;12210288;19;20713;-86
2023/08/30 16:15:09;;;;;;;4.35;2.50;;;;;;;23.11;48.57;98794.47;12220422;19;20262;-86
2023/08/30 16:19:11;;;;;;;4.53;2.28;;;;;;;23.30;48.15;98788.19;12187706;19;20018;-86
2023/08/30 16:23:13;;;;;;;4.00;1.88;;;;;;;23.34;47.90;98791.88;12210806;19;20003;-85
2023/08/30 16:27:15;;;;;;;5.80;2.80;;;;;;;23.02;47.97;98786.19;12185661;19;20331;-84
2023/08/30 16:31:17;;;;;;;4.97;2.53;;;;;;;22.65;48.95;98794.72;12207124;19;20010;-86
2023/08/30 16:35:26;;;;;;;4.88;2.20;;;;;;;22.37;49.29;98799.44;12206137;19;20005;-86
2023/08/30 16:39:29;;;;;;;6.53;2.53;;;;;;;22.22;49.60;98796.22;12182325;19;20031;-84
2023/08/30 16:43:31;;;;;;;6.15;2.53;;;;;;;22.00;50.10;98811.47;12204482;19;20021;-85
2023/08/30 16:47:34;;;;;;;5.68;2.33;;;;;;;21.89;50.31;98813.09;12206249;19;20028;-85
2023/08/30 16:52:30;;;;;;;6.07;2.70;;;;;;;21.68;50.45;98827.22;12179782;19;20006;-87
2023/08/30 16:56:55;;;;;;;3.92;2.30;;;;;;;21.49;50.89;98830.56;12206592;19;20006;-87
2023/08/30 17:01:23;;;;;;;7.82;2.60;;;;;;;21.39;51.24;98828.22;12192556;19;20082;-87
2023/08/30 17:10:47;;;;;;;3.83;2.17;;;;;;;21.19;53.30;98817.84;12216424;19;20016;-87
2023/08/30 17:19:53;;;;;;;5.82;2.85;;;;;;;20.97;54.48;98838.63;12237190;19;20465;-86
2023/08/30 17:24:02;;;;;;;5.15;2.35;;;;;;;20.83;56.10;98842.53;12210144;19;20078;-87
2023/08/30 17:28:04;;;;;;;6.72;2.33;;;;;;;20.62;60.25;98850.13;12193356;19;20019;-84
2023/08/30 17:32:08;;;;;;;7.53;2.67;;;;;;;20.25;64.16;98847.00;12225641;19;20039;-84
2023/08/30 17:36:09;;;;;;;5.00;2.58;;;;;;;19.95;66.75;98849.78;12240327;19;20007;-85
2023/08/30 17:40:12;;;;;;;4.85;2.30;;;;;;;19.72;68.68;98856.78;12195128;19;21734;-84
2023/08/30 17:44:25;;;;;;;6.15;2.92;;;;;;;19.62;71.29;98865.50;12204569;19;20002;-86
2023/08/30 17:48:27;;;;;;;;;;;;;;;19.49;71.19;98870.94;12182544;19;20024;-84
2023/08/30 17:52:31;;;;;;;4.75;2.55;;;;;;;19.44;73.00;98873.09;12205941;19;19910;-84
2023/08/30 17:56:33;;;;;;;6.00;2.50;;;;;;;19.35;75.05;98879.50;12208830;19;20040;-85
2023/08/30 18:01:15;;;;;;;5.80;2.97;;;;;;;19.26;77.87;98887.09;12185624;19;20023;-84
2023/08/30 18:05:37;;;;;;;4.63;2.83;;;;;;;19.11;80.61;98884.78;12200652;19;20005;-84
2023/08/30 18:09:39;;;;;;;7.40;3.63;;;;;;;19.01;84.62;98872.00;12178643;19;20003;-83
2023/08/30 18:13:43;;;;;;;5.23;3.03;;;;;;;18.88;86.79;98864.59;12200084;19;20006;-83
2023/08/30 18:17:48;;;;;;;6.40;3.40;;;;;;;18.79;89.62;98863.78;12200296;19;20312;-83
2023/08/30 18:21:50;;;;;;;6.28;3.35;;;;;;;18.67;91.39;98876.34;12176409;19;20007;-83
2023/08/30 18:25:52;;;;;;;7.30;4.15;;;;;;;18.54;94.97;98874.53;12195725;19;20727;-83
2023/08/30 18:29:54;;;;;;;5.43;3.03;;;;;;;18.40;97.46;98890.59;12191433;19;20010;-84
2023/08/30 18:33:56;;;;;;;11.02;5.32;;;;;;;18.25;100.00;98925.31;12173770;19;20050;-83
2023/08/30 18:38:02;;;;;;;6.82;3.05;;;;;;;17.99;100.00;98969.81;12197458;19;20023;-80
2023/08/30 18:42:04;;;;;;;6.25;2.55;;;;;;;17.38;100.00;98982.47;12192232;19;20404;-77
2023/08/30 18:46:06;;;;;;;5.93;2.67;;;;;;;16.65;100.00;98976.81;12170482;19;20363;-79
2023/08/30 18:50:11;;;;;;;1.75;1.20;;;;;;;16.14;100.00;98966.72;12193407;19;20018;-79
2023/08/30 18:54:13;;;;;;;3.63;1.52;;;;;;;15.73;100.00;98998.00;12183934;19;20007;-77
2023/08/30 18:58:15;;;;;;;3.65;1.70;;;;;;;15.59;100.00;99002.69;12204147;19;20014;-78
2023/08/30 19:02:17;;;;;;;3.03;1.40;;;;;;;15.53;100.00;99020.53;12206800;19;20007;-80
2023/08/30 19:06:19;;;;;;;4.38;1.60;;;;;;;15.39;100.00;99024.09;12174700;19;20378;-80
2023/08/30 19:10:21;;;;;;;4.72;2.22;;;;;;;15.35;100.00;99028.59;12193489;19;20114;-80
2023/08/30 19:14:25;;;;;;;7.10;2.15;;;;;;;15.35;100.00;99033.28;12189163;19;20079;-82
2023/08/30 19:18:27;;;;;;;4.30;2.33;;;;;;;15.43;100.00;99035.41;12169453;19;20911;-81
2023/08/30 19:22:30;;;;;;;5.20;2.30;;;;;;;15.45;100.00;99030.38;12190736;19;20003;-82
2023/08/30 19:26:32;;;;;;;5.47;2.67;;;;;;;15.39;100.00;99023.25;12187863;19;20330;-81
2023/08/30 19:30:34;;;;;;;5.63;1.92;;;;;;;15.35;100.00;99033.28;12172512;19;20027;-82
2023/08/30 19:34:36;;;;;;;7.07;2.50;;;;;;;15.36;100.00;99041.34;12190043;19;20074;-83
2023/08/30 19:38:38;;;;;;;7.17;2.27;;;;;;;15.38;100.00;99041.88;12190011;19;20011;-82
2023/08/30 19:42:42;;;;;;;4.80;2.45;;;;;;;15.45;100.00;99042.31;12178583;19;20003;-83
2023/08/30 19:46:44;;;;;;;6.45;2.70;;;;;;;15.45;100.00;99028.44;12203726;19;20168;-82
2023/08/30 19:50:52;;;;;;;8.00;2.60;;;;;;;15.49;100.00;99031.41;12206130;19;20074;-83
2023/08/30 19:54:54;;;;;;;5.78;2.97;;;;;;;15.49;100.00;99017.53;12184547;19;20006;-83
2023/08/30 19:58:56;;;;;;;6.97;2.90;;;;;;;15.48;100.00;99027.81;12204307;19;20007;-83